createdAt,value
2022-09-15T00:01:00.996Z,97458.47
2022-09-15T00:03:39.684Z,97461.31
2022-09-15T00:06:08.211Z,97466.63
2022-09-15T00:08:35.460Z,97456.94
2022-09-15T00:11:20.839Z,97466.75
2022-09-15T00:13:48.507Z,97471.25
2022-09-15T00:16:15.832Z,97469.28
2022-09-15T00:18:44.142Z,97464.94
2022-09-15T00:21:17.830Z,97465.94
2022-09-15T00:23:45.037Z,97456.94
2022-09-15T00:26:15.753Z,97465.75
2022-09-15T00:28:43.437Z,97463.81
2022-09-15T00:31:14.564Z,97463.66
2022-09-15T00:33:42.328Z,97455.38
2022-09-15T00:36:11.382Z,97443.09
2022-09-15T00:38:38.965Z,97447.41
2022-09-15T00:41:07.860Z,97448.09
2022-09-15T00:44:02.536Z,97433.41
2022-09-15T00:46:35.540Z,97413.69
2022-09-15T00:49:12.562Z,97399.69
2022-09-15T00:51:48.510Z,97399.50
2022-09-15T00:54:20.019Z,97407.38
2022-09-15T00:56:49.783Z,97408.19
2022-09-15T00:59:19.575Z,97397.03
2022-09-15T01:01:49.165Z,97399.50
2022-09-15T01:04:16.635Z,97387.50
2022-09-15T01:06:56.106Z,97388.47
2022-09-15T01:09:28.454Z,97382.47
2022-09-15T01:11:55.532Z,97379.78
2022-09-15T01:14:22.389Z,97368.75
2022-09-15T01:16:55.309Z,97381.66
2022-09-15T01:19:51.595Z,97375.22
2022-09-15T01:22:24.396Z,97383.63
2022-09-15T01:25:15.367Z,97371.75
2022-09-15T01:27:54.635Z,97376.78
2022-09-15T01:30:23.388Z,97386.03
2022-09-15T01:33:11.683Z,97390.13
2022-09-15T01:35:44.131Z,97384.22
2022-09-15T01:38:48.998Z,97388.72
2022-09-15T01:41:19.558Z,97373.88
2022-09-15T01:44:06.520Z,97378.50
2022-09-15T01:46:39.418Z,97356.25
2022-09-15T01:49:11.207Z,97349.25
2022-09-15T01:51:40.174Z,97345.91
2022-09-15T01:54:08.910Z,97347.69
2022-09-15T01:56:38.086Z,97347.56
2022-09-15T01:59:05.580Z,97338.63
2022-09-15T02:02:12.627Z,97327.69
2022-09-15T02:04:55.902Z,97326.56
2022-09-15T02:07:39.174Z,97331.75
2022-09-15T02:10:30.999Z,97321.81
2022-09-15T02:13:17.145Z,97315.50
2022-09-15T02:15:51.769Z,97317.34
2022-09-15T02:18:44.147Z,97310.19
2022-09-15T02:21:24.132Z,97318.88
2022-09-15T02:23:57.172Z,97314.13
2022-09-15T02:26:28.805Z,97305.84
2022-09-15T02:29:00.453Z,97302.22
2022-09-15T02:31:29.442Z,97291.41
2022-09-15T02:34:01.264Z,97284.13
2022-09-15T02:36:29.524Z,97278.69
2022-09-15T02:39:04.411Z,97284.69
2022-09-15T02:41:33.009Z,97283.56
2022-09-15T02:43:59.771Z,97283.56
2022-09-15T02:46:26.689Z,97287.06
2022-09-15T02:48:53.720Z,97287.06
2022-09-15T02:51:20.544Z,97291.53
2022-09-15T02:53:47.372Z,97282.56
2022-09-15T02:56:15.759Z,97287.88
2022-09-15T02:58:43.695Z,97273.75
2022-09-15T03:01:15.712Z,97264.94
2022-09-15T03:03:45.297Z,97264.94
2022-09-15T03:06:19.949Z,97258.25
2022-09-15T03:08:51.291Z,97251.66
2022-09-15T03:11:20.980Z,97247.03
2022-09-15T03:13:48.556Z,97249.53
2022-09-15T03:16:16.559Z,97253.03
2022-09-15T03:18:43.473Z,97246.72
2022-09-15T03:21:13.938Z,97252.75
2022-09-15T03:23:42.160Z,97247.41
2022-09-15T03:26:09.574Z,97242.09
2022-09-15T03:28:38.112Z,97239.31
2022-09-15T03:31:06.564Z,97227.97
2022-09-15T03:33:33.420Z,97240.56
2022-09-15T03:36:00.568Z,97234.44
2022-09-15T03:38:27.425Z,97243.22
2022-09-15T03:41:03.697Z,97228.25
2022-09-15T03:43:32.127Z,97235.13
2022-09-15T03:45:59.389Z,97237.78
2022-09-15T03:48:27.702Z,97232.16
2022-09-15T03:50:54.759Z,97232.97
2022-09-15T03:53:22.249Z,97230.06
2022-09-15T03:55:49.920Z,97226.25
2022-09-15T03:58:18.566Z,97218.09
2022-09-15T04:00:46.164Z,97217.84
2022-09-15T04:03:13.869Z,97208.84
2022-09-15T04:05:42.197Z,97206.06
2022-09-15T04:08:12.524Z,97216.56
2022-09-15T04:10:40.723Z,97213.72
2022-09-15T04:13:08.609Z,97211.06
2022-09-15T04:15:35.453Z,97215.41
2022-09-15T04:18:02.635Z,97209.09
2022-09-15T04:20:29.705Z,97218.06
2022-09-15T04:22:56.493Z,97209.41
2022-09-15T04:25:24.234Z,97216.38
2022-09-15T04:27:51.228Z,97209.09
2022-09-15T04:30:18.069Z,97210.94
2022-09-15T04:32:44.860Z,97213.59
2022-09-15T04:35:12.333Z,97206.59
2022-09-15T04:37:39.349Z,97195.97
2022-09-15T04:40:06.740Z,97178.31
2022-09-15T04:42:33.732Z,97184.78
2022-09-15T04:45:00.513Z,97176.94
2022-09-15T04:47:27.515Z,97171.47
2022-09-15T04:49:54.540Z,97192.31
2022-09-15T04:52:21.328Z,97191.16
2022-09-15T04:54:48.127Z,97187.38
2022-09-15T04:57:15.164Z,97192.09
2022-09-15T04:59:41.952Z,97180.84
2022-09-15T05:02:08.994Z,97179.84
2022-09-15T05:04:36.043Z,97179.59
2022-09-15T05:07:02.925Z,97176.31
2022-09-15T05:09:31.044Z,97179.38
2022-09-15T05:11:58.156Z,97182.28
2022-09-15T05:14:24.948Z,97174.66
2022-09-15T05:16:51.817Z,97175.03
2022-09-15T05:19:18.811Z,97177.94
2022-09-15T05:21:45.557Z,97178.13
2022-09-15T05:24:12.369Z,97178.56
2022-09-15T05:26:39.574Z,97175.41
2022-09-15T05:29:06.395Z,97178.22
2022-09-15T05:31:34.034Z,97164.00
2022-09-15T05:34:03.211Z,97177.19
2022-09-15T05:36:30.758Z,97173.91
2022-09-15T05:38:58.121Z,97167.75
2022-09-15T05:41:26.731Z,97169.34
2022-09-15T05:43:55.314Z,97174.59
2022-09-15T05:46:22.661Z,97174.22
2022-09-15T05:48:49.797Z,97166.28
2022-09-15T05:51:16.591Z,97175.41
2022-09-15T05:53:43.367Z,97159.44
2022-09-15T05:56:13.026Z,97164.13
2022-09-15T05:58:42.066Z,97163.34
2022-09-15T06:01:13.614Z,97158.75
2022-09-15T06:03:40.832Z,97162.44
2022-09-15T06:06:07.877Z,97165.41
2022-09-15T06:08:37.239Z,97158.28
2022-09-15T06:11:16.707Z,97163.38
2022-09-15T06:13:44.991Z,97163.16
2022-09-15T06:16:15.140Z,97160.47
2022-09-15T06:18:42.279Z,97160.16
2022-09-15T06:21:21.717Z,97145.78
2022-09-15T06:23:55.690Z,97160.22
2022-09-15T06:26:23.627Z,97160.69
2022-09-15T06:28:53.078Z,97152.91
2022-09-15T06:31:20.559Z,97160.28
2022-09-15T06:33:51.496Z,97162.31
2022-09-15T06:36:20.439Z,97159.13
2022-09-15T06:38:48.015Z,97169.16
2022-09-15T06:41:15.843Z,97171.63
2022-09-15T06:43:43.995Z,97151.53
2022-09-15T06:46:14.955Z,97165.47
2022-09-15T06:48:44.309Z,97174.72
2022-09-15T06:51:17.146Z,97169.31
2022-09-15T06:53:44.811Z,97174.06
2022-09-15T06:56:14.848Z,97171.78
2022-09-15T06:58:42.771Z,97163.25
2022-09-15T07:01:13.026Z,97176.09
2022-09-15T07:03:42.601Z,97178.31
2022-09-15T07:06:11.928Z,97182.31
2022-09-15T07:08:39.759Z,97178.97
2022-09-15T07:11:07.207Z,97187.31
2022-09-15T07:13:34.872Z,97196.00
2022-09-15T07:16:05.901Z,97197.69
2022-09-15T07:18:33.272Z,97201.00
2022-09-15T07:21:03.204Z,97198.34
2022-09-15T07:23:30.366Z,97204.03
2022-09-15T07:26:17.798Z,97207.50
2022-09-15T07:28:48.075Z,97212.56
2022-09-15T07:31:17.115Z,97218.28
2022-09-15T07:33:44.266Z,97222.91
2022-09-15T07:36:11.767Z,97234.38
2022-09-15T07:38:42.200Z,97222.28
2022-09-15T07:41:21.157Z,97218.09
2022-09-15T07:43:49.719Z,97228.56
2022-09-15T07:46:17.647Z,97231.66
2022-09-15T07:48:45.928Z,97232.66
2022-09-15T07:51:13.878Z,97247.47
2022-09-15T07:53:40.991Z,97252.25
2022-09-15T07:56:08.206Z,97249.97
2022-09-15T07:58:35.297Z,97250.59
2022-09-15T08:01:07.308Z,97247.88
2022-09-15T08:03:34.257Z,97242.00
2022-09-15T08:06:02.555Z,97248.34
2022-09-15T08:08:30.502Z,97243.84
2022-09-15T08:10:57.383Z,97252.50
2022-09-15T08:13:25.093Z,97250.06
2022-09-15T08:15:52.566Z,97257.63
2022-09-15T08:18:19.574Z,97252.84
2022-09-15T08:20:46.542Z,97266.94
2022-09-15T08:23:14.055Z,97262.66
2022-09-15T08:25:40.916Z,97246.09
2022-09-15T08:28:08.423Z,97258.81
2022-09-15T08:30:35.454Z,97250.97
2022-09-15T08:33:02.239Z,97253.09
2022-09-15T08:35:30.090Z,97267.69
2022-09-15T08:37:56.910Z,97276.31
2022-09-15T08:40:33.078Z,97282.00
2022-09-15T08:43:06.264Z,97273.91
2022-09-15T08:45:46.342Z,97268.44
2022-09-15T08:48:17.109Z,97273.81
2022-09-15T08:50:50.081Z,97266.03
2022-09-15T08:53:29.982Z,97273.25
2022-09-15T08:56:00.355Z,97282.44
2022-09-15T08:58:31.526Z,97274.81
2022-09-15T09:00:58.256Z,97297.38
2022-09-15T09:03:58.670Z,97286.72
2022-09-15T09:06:52.758Z,97277.19
2022-09-15T09:09:38.470Z,97283.19
2022-09-15T09:12:14.496Z,97288.31
2022-09-15T09:14:47.311Z,97284.47
2022-09-15T09:17:29.650Z,97280.97
2022-09-15T09:20:22.919Z,97277.81
2022-09-15T09:22:53.316Z,97284.84
2022-09-15T09:25:27.725Z,97273.06
2022-09-15T09:27:58.360Z,97278.03
2022-09-15T09:30:27.882Z,97270.53
2022-09-15T09:33:03.055Z,97286.06
2022-09-15T09:35:41.540Z,97264.69
2022-09-15T09:38:10.210Z,97268.75
2022-09-15T09:40:40.530Z,97285.16
2022-09-15T09:43:08.811Z,97284.59
2022-09-15T09:45:35.887Z,97284.78
2022-09-15T09:48:15.404Z,97281.22
2022-09-15T09:50:43.673Z,97292.38
2022-09-15T09:53:26.296Z,97299.22
2022-09-15T09:55:55.334Z,97291.72
2022-09-15T09:58:24.215Z,97280.97
2022-09-15T10:00:53.529Z,97294.75
2022-09-15T10:03:26.217Z,97290.22
2022-09-15T10:06:06.523Z,97289.66
2022-09-15T10:08:36.064Z,97293.63
2022-09-15T10:11:06.239Z,97280.06
2022-09-15T10:13:35.616Z,97285.56
2022-09-15T10:16:06.279Z,97286.22
2022-09-15T10:18:36.552Z,97294.78
2022-09-15T10:21:09.556Z,97282.47
2022-09-15T10:23:36.807Z,97290.91
2022-09-15T10:26:30.025Z,97290.44
2022-09-15T10:29:15.866Z,97285.63
2022-09-15T10:31:44.605Z,97300.84
2022-09-15T10:34:31.147Z,97297.53
2022-09-15T10:37:08.531Z,97301.69
2022-09-15T10:39:51.731Z,97306.22
2022-09-15T10:42:44.863Z,97304.94
2022-09-15T10:45:36.883Z,97308.16
2022-09-15T10:48:10.227Z,97316.41
2022-09-15T10:50:49.869Z,97314.66
2022-09-15T10:53:34.664Z,97319.63
2022-09-15T10:56:17.800Z,97318.06
2022-09-15T10:59:03.709Z,97332.47
2022-09-15T11:01:30.729Z,97335.47
2022-09-15T11:04:13.371Z,97350.50
2022-09-15T11:06:50.488Z,97357.38
2022-09-15T11:09:26.002Z,97354.03
2022-09-15T11:12:04.828Z,97359.28
2022-09-15T11:15:03.911Z,97364.00
2022-09-15T11:17:31.083Z,97358.31
2022-09-15T11:20:00.844Z,97361.31
2022-09-15T11:22:33.380Z,97371.84
2022-09-15T11:25:17.655Z,97368.97
2022-09-15T11:27:55.852Z,97363.97
2022-09-15T11:30:25.557Z,97360.97
2022-09-15T11:33:13.639Z,97350.78
2022-09-15T11:35:45.224Z,97351.13
2022-09-15T11:38:13.070Z,97357.47
2022-09-15T11:40:48.297Z,97360.16
2022-09-15T11:43:24.159Z,97354.13
2022-09-15T11:45:56.561Z,97363.66
2022-09-15T11:48:48.170Z,97365.50
2022-09-15T11:51:21.576Z,97369.16
2022-09-15T11:53:58.978Z,97371.16
2022-09-15T11:56:42.031Z,97377.19
2022-09-15T11:59:41.856Z,97384.06
2022-09-15T12:02:21.962Z,97385.72
2022-09-15T12:05:03.322Z,97396.34
2022-09-15T12:07:32.979Z,97393.16
2022-09-15T12:10:07.308Z,97390.94
2022-09-15T12:12:35.921Z,97397.78
2022-09-15T12:15:03.634Z,97402.31
2022-09-15T12:17:41.962Z,97397.28
2022-09-15T12:20:26.781Z,97405.63
2022-09-15T12:23:12.186Z,97411.13
2022-09-15T12:26:14.342Z,97420.97
2022-09-15T12:28:47.095Z,97424.00
2022-09-15T12:31:14.479Z,97424.97
2022-09-15T12:34:13.090Z,97433.13
2022-09-15T12:36:52.483Z,97436.91
2022-09-15T12:39:38.063Z,97444.19
2022-09-15T12:42:14.073Z,97447.50
2022-09-15T12:44:49.899Z,97446.06
2022-09-15T12:47:37.977Z,97451.03
2022-09-15T12:50:08.370Z,97463.84
2022-09-15T12:52:51.614Z,97466.97
2022-09-15T12:55:23.469Z,97463.63
2022-09-15T12:58:00.204Z,97466.00
2022-09-15T13:00:34.792Z,97461.34
2022-09-15T13:03:03.994Z,97457.19
2022-09-15T13:05:43.061Z,97456.53
2022-09-15T13:08:15.394Z,97458.22
2022-09-15T13:10:59.839Z,97454.59
2022-09-15T13:13:43.959Z,97452.84
2022-09-15T13:16:17.009Z,97444.91
2022-09-15T13:18:47.103Z,97447.16
2022-09-15T13:21:23.111Z,97443.38
2022-09-15T13:23:57.177Z,97435.06
2022-09-15T13:26:29.618Z,97441.44
2022-09-15T13:29:00.308Z,97442.78
2022-09-15T13:31:41.213Z,97432.59
2022-09-15T13:40:52.022Z,97423.66
2022-09-15T13:44:10.187Z,97425.69
2022-09-15T13:47:25.949Z,97420.03
2022-09-15T13:50:24.873Z,97416.84
2022-09-15T13:52:57.781Z,97421.66
2022-09-15T13:55:27.823Z,97413.81
2022-09-15T14:00:54.972Z,97418.59
2022-09-15T14:03:27.803Z,97413.47
2022-09-15T14:06:00.437Z,97408.72
2022-09-15T14:08:38.212Z,97409.81
2022-09-15T14:11:13.159Z,97411.34
2022-09-15T14:13:49.122Z,97413.03
2022-09-15T14:16:26.401Z,97420.97
2022-09-15T14:18:57.724Z,97413.78
2022-09-15T14:21:28.410Z,97415.63
2022-09-15T14:23:57.819Z,97426.69
2022-09-15T14:26:28.777Z,97424.84
2022-09-15T14:28:58.811Z,97427.88
2022-09-15T14:31:37.968Z,97419.00
2022-09-15T14:34:15.620Z,97412.84
2022-09-15T14:36:43.062Z,97412.66
2022-09-15T14:39:12.877Z,97421.84
2022-09-15T14:41:40.264Z,97424.88
2022-09-15T14:56:05.652Z,97397.94
2022-09-15T14:58:41.809Z,97398.25
2022-09-15T15:01:46.601Z,97404.88
2022-09-15T15:04:35.207Z,97397.50
2022-09-15T15:07:29.076Z,97398.63
2022-09-15T15:10:00.546Z,97402.44
2022-09-15T15:12:34.484Z,97401.38
2022-09-15T15:15:01.954Z,97405.53
2022-09-15T15:17:38.540Z,97413.50
2022-09-15T15:20:08.957Z,97404.13
2022-09-15T15:22:37.409Z,97404.31
2022-09-15T15:25:28.307Z,97405.94
2022-09-15T15:28:00.143Z,97409.75
2022-09-15T15:30:30.835Z,97403.34
2022-09-15T15:33:12.698Z,97404.63
2022-09-15T15:35:42.000Z,97415.66
2022-09-15T15:38:17.067Z,97419.47
2022-09-15T15:40:45.631Z,97409.25
2022-09-15T15:43:15.558Z,97408.91
2022-09-15T15:45:58.433Z,97405.16
2022-09-15T15:48:27.482Z,97396.94
2022-09-15T15:50:55.235Z,97397.41
2022-09-15T15:53:23.734Z,97402.25
2022-09-15T15:55:50.896Z,97398.53
2022-09-15T15:58:17.846Z,97397.84
2022-09-15T16:00:47.610Z,97401.13
2022-09-15T16:03:16.452Z,97398.91
2022-09-15T16:05:49.508Z,97394.88
2022-09-15T16:08:30.209Z,97388.50
2022-09-15T16:10:57.948Z,97384.44
2022-09-15T16:13:25.960Z,97388.56
2022-09-15T16:15:53.930Z,97400.00
2022-09-15T16:18:21.537Z,97390.13
2022-09-15T16:20:48.598Z,97385.22
2022-09-15T16:23:22.454Z,97378.50
2022-09-15T16:26:01.924Z,97379.09
2022-09-15T16:28:28.924Z,97371.56
2022-09-15T16:30:57.237Z,97371.31
2022-09-15T16:33:25.122Z,97366.59
2022-09-15T16:36:08.979Z,97363.88
2022-09-15T16:38:36.911Z,97352.78
2022-09-15T16:41:10.959Z,97359.41
2022-09-15T16:43:38.044Z,97361.00
2022-09-15T16:46:06.306Z,97357.81
2022-09-15T16:48:34.284Z,97363.44
2022-09-15T16:51:23.057Z,97361.34
2022-09-15T16:53:49.001Z,97360.13
2022-09-15T16:56:16.180Z,97361.41
2022-09-15T16:58:44.095Z,97352.19
2022-09-15T17:01:17.825Z,97352.66
2022-09-15T17:03:45.039Z,97355.44
2022-09-15T17:06:14.733Z,97350.97
2022-09-15T17:08:41.732Z,97352.09
2022-09-15T17:11:16.627Z,97348.03
2022-09-15T17:13:44.519Z,97354.38
2022-09-15T17:16:14.992Z,97365.84
2022-09-15T17:18:42.063Z,97371.31
2022-09-15T17:21:12.842Z,97374.28
2022-09-15T17:23:43.426Z,97364.47
2022-09-15T17:26:13.576Z,97358.31
2022-09-15T17:28:42.361Z,97358.59
2022-09-15T17:31:15.888Z,97368.81
2022-09-15T17:33:43.579Z,97366.44
2022-09-15T17:36:11.224Z,97358.59
2022-09-15T17:38:40.752Z,97365.06
2022-09-15T17:41:14.758Z,97373.34
2022-09-15T17:43:42.041Z,97378.94
2022-09-15T17:46:09.239Z,97376.56
2022-09-15T17:48:39.231Z,97378.84
2022-09-15T17:51:07.202Z,97376.75
2022-09-15T17:53:34.299Z,97371.28
2022-09-15T17:56:01.427Z,97372.56
2022-09-15T17:58:30.036Z,97362.34
2022-09-15T18:00:57.880Z,97353.84
2022-09-15T18:03:28.120Z,97354.81
2022-09-15T18:06:00.801Z,97353.28
2022-09-15T18:08:28.085Z,97344.47
2022-09-15T18:10:55.737Z,97335.66
2022-09-15T18:13:26.962Z,97337.44
2022-09-15T18:15:54.550Z,97341.25
2022-09-15T18:18:24.123Z,97340.69
2022-09-15T18:20:53.180Z,97339.84
2022-09-15T18:23:22.587Z,97331.88
2022-09-15T18:25:50.830Z,97335.38
2022-09-15T18:28:18.732Z,97345.31
2022-09-15T18:30:48.797Z,97350.06
2022-09-15T18:33:22.969Z,97349.66
2022-09-15T18:35:52.473Z,97352.47
2022-09-15T18:38:19.828Z,97351.91
2022-09-15T18:40:49.167Z,97354.56
2022-09-15T18:43:17.210Z,97357.25
2022-09-15T18:45:44.213Z,97360.84
2022-09-15T18:48:13.043Z,97364.34
2022-09-15T18:50:41.906Z,97359.91
2022-09-15T18:53:09.260Z,97360.84
2022-09-15T18:55:36.279Z,97363.66
2022-09-15T18:58:03.265Z,97361.16
2022-09-15T19:00:31.559Z,97368.13
2022-09-15T19:03:00.477Z,97366.31
2022-09-15T19:05:28.907Z,97364.63
2022-09-15T19:07:56.681Z,97357.50
2022-09-15T19:10:24.448Z,97360.03
2022-09-15T19:12:51.571Z,97361.84
2022-09-15T19:15:23.665Z,97366.31
2022-09-15T19:17:50.981Z,97373.44
2022-09-15T19:20:18.278Z,97377.09
2022-09-15T19:22:46.146Z,97371.63
2022-09-15T19:25:13.565Z,97366.47
2022-09-15T19:27:41.631Z,97374.28
2022-09-15T19:30:12.385Z,97367.44
2022-09-15T19:32:40.241Z,97373.59
2022-09-15T19:35:08.817Z,97368.97
2022-09-15T19:37:38.074Z,97370.94
2022-09-15T19:40:09.084Z,97379.06
2022-09-15T19:42:38.204Z,97378.94
2022-09-15T19:45:06.052Z,97381.72
2022-09-15T19:47:32.871Z,97392.06
2022-09-15T19:50:00.028Z,97384.38
2022-09-15T19:52:27.707Z,97387.03
2022-09-15T19:54:54.544Z,97383.66
2022-09-15T19:57:21.585Z,97390.94
2022-09-15T19:59:48.452Z,97391.50
2022-09-15T20:02:15.569Z,97388.16
2022-09-15T20:04:43.458Z,97393.31
2022-09-15T20:07:10.461Z,97398.63
2022-09-15T20:09:37.352Z,97400.31
2022-09-15T20:12:04.735Z,97406.47
2022-09-15T20:14:31.722Z,97405.34
2022-09-15T20:17:01.162Z,97409.69
2022-09-15T20:19:29.584Z,97412.34
2022-09-15T20:21:56.865Z,97418.22
2022-09-15T20:24:24.405Z,97418.22
2022-09-15T20:26:53.065Z,97427.31
2022-09-15T20:29:20.789Z,97419.47
2022-09-15T20:31:48.118Z,97412.34
2022-09-15T20:34:15.701Z,97414.16
2022-09-15T20:36:43.662Z,97412.47
2022-09-15T20:39:14.671Z,97424.78
2022-09-15T20:41:45.215Z,97423.25
2022-09-15T20:44:12.424Z,97427.03
2022-09-15T20:46:39.717Z,97429.84
2022-09-15T20:49:07.516Z,97427.44
2022-09-15T20:51:34.698Z,97426.03
2022-09-15T20:54:03.808Z,97420.88
2022-09-15T20:56:31.780Z,97412.75
2022-09-15T20:59:00.565Z,97410.09
2022-09-15T21:01:38.554Z,97406.44
2022-09-15T21:04:08.714Z,97408.28
2022-09-15T21:06:36.053Z,97413.16
2022-09-15T21:09:04.641Z,97407.84
2022-09-15T21:11:32.124Z,97404.50
2022-09-15T21:13:59.046Z,97415.97
2022-09-15T21:16:28.425Z,97412.59
2022-09-15T21:18:58.059Z,97417.19
2022-09-15T21:21:27.509Z,97422.50
2022-09-15T21:23:56.522Z,97412.59
2022-09-15T21:26:27.573Z,97417.59
2022-09-15T21:28:56.332Z,97420.03
2022-09-15T21:31:26.272Z,97417.47
2022-09-15T21:33:54.527Z,97420.97
2022-09-15T21:36:30.128Z,97414.09
2022-09-15T21:38:59.090Z,97414.94
2022-09-15T21:41:30.117Z,97409.78
2022-09-15T21:43:59.180Z,97417.47
2022-09-15T21:46:29.037Z,97419.28
2022-09-15T21:48:57.689Z,97427.25
2022-09-15T21:51:26.433Z,97433.53
2022-09-15T21:53:55.053Z,97438.13
2022-09-15T21:56:22.872Z,97446.09
2022-09-15T21:58:49.796Z,97450.59
2022-09-15T22:01:20.974Z,97460.50
2022-09-15T22:03:51.545Z,97462.31
2022-09-15T22:06:20.804Z,97470.41
2022-09-15T22:08:47.964Z,97468.63
2022-09-15T22:11:15.348Z,97471.13
2022-09-15T22:13:44.682Z,97479.09
2022-09-15T22:16:18.358Z,97476.72
2022-09-15T22:18:46.164Z,97472.94
2022-09-15T22:21:22.494Z,97479.25
2022-09-15T22:23:51.062Z,97484.56
2022-09-15T22:26:20.696Z,97492.66
2022-09-15T22:28:48.243Z,97471.28
2022-09-15T22:31:17.210Z,97480.63
2022-09-15T22:33:45.206Z,97482.75
2022-09-15T22:36:13.985Z,97483.69
2022-09-15T22:38:41.501Z,97491.66
2022-09-15T22:41:12.017Z,97507.59
2022-09-15T22:43:40.197Z,97511.13
2022-09-15T22:46:07.891Z,97510.41
2022-09-15T22:48:37.493Z,97521.03
2022-09-15T22:51:07.324Z,97523.94
2022-09-15T22:53:34.850Z,97522.28
2022-09-15T22:56:14.135Z,97531.34
2022-09-15T22:58:46.463Z,97543.53
2022-09-15T23:01:18.838Z,97542.94
2022-09-15T23:03:56.743Z,97541.38
2022-09-15T23:06:25.314Z,97543.22
2022-09-15T23:08:54.722Z,97547.69
2022-09-15T23:11:22.298Z,97547.69
2022-09-15T23:13:49.196Z,97543.34
2022-09-15T23:16:17.311Z,97546.81
2022-09-15T23:18:46.033Z,97546.00
2022-09-15T23:21:13.679Z,97541.66
2022-09-15T23:23:43.358Z,97542.19
2022-09-15T23:26:12.557Z,97541.19
2022-09-15T23:28:40.306Z,97545.97
2022-09-15T23:31:10.248Z,97555.59
2022-09-15T23:33:37.131Z,97553.91
2022-09-15T23:36:07.031Z,97544.41
2022-09-15T23:38:38.834Z,97541.03
2022-09-15T23:41:06.934Z,97548.84
2022-09-15T23:43:34.587Z,97549.13
2022-09-15T23:46:02.553Z,97548.69
2022-09-15T23:48:31.793Z,97551.34
2022-09-15T23:50:58.767Z,97546.16
2022-09-15T23:53:25.860Z,97550.75
2022-09-15T23:55:52.850Z,97553.69
2022-09-15T23:58:19.787Z,97556.72
